createdAt,value
2022-12-08T00:01:51.854Z,99679.95
2022-12-08T00:04:19.891Z,99680.20
2022-12-08T00:07:05.961Z,99684.02
2022-12-08T00:09:38.957Z,99689.92
2022-12-08T00:12:12.909Z,99695.06
2022-12-08T00:14:42.941Z,99698.24
2022-12-08T00:17:12.660Z,99703.59
2022-12-08T00:19:41.283Z,99703.89
2022-12-08T00:22:10.441Z,99701.90
2022-12-08T00:24:39.947Z,99706.94
2022-12-08T00:27:09.759Z,99709.69
2022-12-08T00:29:38.533Z,99714.65
2022-12-08T00:32:06.797Z,99719.95
2022-12-08T00:34:34.942Z,99721.97
2022-12-08T00:37:02.713Z,99728.05
2022-12-08T00:39:30.397Z,99732.70
2022-12-08T00:42:13.213Z,99732.58
2022-12-08T00:44:42.566Z,99735.36
2022-12-08T00:47:11.566Z,99736.94
2022-12-08T00:49:39.309Z,99737.98
2022-12-08T00:52:07.012Z,99738.39
2022-12-08T00:54:34.778Z,99744.45
2022-12-08T00:57:02.474Z,99745.48
2022-12-08T00:59:30.140Z,99744.80
2022-12-08T01:01:57.843Z,99743.02
2022-12-08T01:04:25.868Z,99746.23
2022-12-08T01:06:53.631Z,99749.33
2022-12-08T01:09:21.434Z,99750.05
2022-12-08T01:11:49.190Z,99751.25
2022-12-08T01:14:17.032Z,99757.17
2022-12-08T01:16:45.104Z,99763.46
2022-12-08T01:19:14.924Z,99762.37
2022-12-08T01:21:44.712Z,99764.05
2022-12-08T01:24:13.554Z,99767.34
2022-12-08T01:26:41.361Z,99765.83
2022-12-08T01:29:10.391Z,99764.30
2022-12-08T01:31:38.779Z,99760.56
2022-12-08T01:34:08.418Z,99758.26
2022-12-08T01:36:39.631Z,99763.34
2022-12-08T01:39:12.716Z,99767.16
2022-12-08T01:41:40.405Z,99764.46
2022-12-08T01:44:11.532Z,99758.56
2022-12-08T01:46:44.228Z,99759.94
2022-12-08T01:49:31.058Z,99763.37
2022-12-08T01:52:00.696Z,99767.88
2022-12-08T01:54:33.734Z,99772.95
2022-12-08T01:57:21.107Z,99772.73
2022-12-08T01:59:56.479Z,99768.05
2022-12-08T02:02:29.721Z,99775.42
2022-12-08T02:04:57.545Z,99777.28
2022-12-08T02:07:25.581Z,99779.73
2022-12-08T02:09:54.229Z,99780.54
2022-12-08T02:12:22.160Z,99779.21
2022-12-08T02:14:49.944Z,99782.90
2022-12-08T02:17:32.129Z,99785.45
2022-12-08T02:20:37.939Z,99781.14
2022-12-08T02:23:22.547Z,99780.98
2022-12-08T02:26:09.247Z,99783.14
2022-12-08T02:29:05.921Z,99782.83
2022-12-08T02:31:55.576Z,99784.08
2022-12-08T02:34:26.415Z,99781.45
2022-12-08T02:37:02.928Z,99783.67
2022-12-08T02:39:43.234Z,99782.33
2022-12-08T02:42:21.027Z,99782.30
2022-12-08T02:44:55.826Z,99790.10
2022-12-08T02:47:26.312Z,99789.08
2022-12-08T02:49:55.939Z,99793.04
2022-12-08T02:52:23.563Z,99792.27
2022-12-08T02:54:58.579Z,99792.25
2022-12-08T02:57:47.802Z,99796.71
2022-12-08T03:00:19.069Z,99797.84
2022-12-08T03:03:14.454Z,99800.01
2022-12-08T03:05:54.188Z,99809.25
2022-12-08T03:08:32.917Z,99812.52
2022-12-08T03:11:21.868Z,99810.33
2022-12-08T03:13:52.695Z,99809.14
2022-12-08T03:16:24.779Z,99809.72
2022-12-08T03:19:06.914Z,99806.38
2022-12-08T03:21:36.095Z,99804.48
2022-12-08T03:24:07.447Z,99812.09
2022-12-08T03:26:44.853Z,99816.11
2022-12-08T03:29:13.327Z,99819.09
2022-12-08T03:31:48.112Z,99819.19
2022-12-08T03:34:17.680Z,99820.59
2022-12-08T03:36:45.902Z,99824.92
2022-12-08T03:39:14.577Z,99829.90
2022-12-08T03:41:42.243Z,99826.03
2022-12-08T03:44:09.929Z,99824.75
2022-12-08T03:46:37.714Z,99824.46
2022-12-08T03:49:05.382Z,99828.33
2022-12-08T03:51:33.033Z,99830.16
2022-12-08T03:54:00.695Z,99825.98
2022-12-08T03:56:31.893Z,99828.38
2022-12-08T03:59:00.444Z,99833.23
2022-12-08T04:01:28.488Z,99833.68
2022-12-08T04:03:56.656Z,99834.02
2022-12-08T04:06:24.306Z,99839.90
2022-12-08T04:08:52.605Z,99841.69
2022-12-08T04:11:20.565Z,99848.95
2022-12-08T04:13:48.656Z,99852.48
2022-12-08T04:16:19.906Z,99855.23
2022-12-08T04:18:47.820Z,99857.19
2022-12-08T04:21:15.883Z,99862.96
2022-12-08T04:23:43.962Z,99862.19
2022-12-08T04:26:12.509Z,99859.70
2022-12-08T04:28:40.164Z,99866.10
2022-12-08T04:31:07.886Z,99869.16
2022-12-08T04:33:35.737Z,99871.74
2022-12-08T04:36:05.318Z,99872.30
2022-12-08T04:38:33.185Z,99874.78
2022-12-08T04:41:01.682Z,99869.80
2022-12-08T04:43:29.536Z,99866.91
2022-12-08T04:45:57.230Z,99867.20
2022-12-08T04:48:26.229Z,99870.30
2022-12-08T04:50:53.933Z,99877.23
2022-12-08T04:53:21.727Z,99880.58
2022-12-08T04:55:49.797Z,99882.69
2022-12-08T04:58:19.712Z,99884.88
2022-12-08T05:00:47.868Z,99882.39
2022-12-08T05:03:16.274Z,99876.86
2022-12-08T05:05:44.743Z,99873.87
2022-12-08T05:08:12.723Z,99872.11
2022-12-08T05:10:40.530Z,99872.33
2022-12-08T05:13:08.234Z,99877.63
2022-12-08T05:15:35.957Z,99881.52
2022-12-08T05:18:06.336Z,99884.30
2022-12-08T05:20:34.475Z,99881.06
2022-12-08T05:23:02.131Z,99879.52
2022-12-08T05:25:29.884Z,99882.48
2022-12-08T05:28:17.551Z,99881.65
2022-12-08T05:30:45.176Z,99881.30
2022-12-08T05:33:12.997Z,99880.91
2022-12-08T05:35:40.819Z,99879.84
2022-12-08T05:38:09.451Z,99883.58
2022-12-08T05:40:39.157Z,99886.89
2022-12-08T05:43:07.448Z,99883.64
2022-12-08T05:45:35.146Z,99885.05
2022-12-08T05:48:02.999Z,99887.73
2022-12-08T05:50:30.842Z,99893.44
2022-12-08T05:52:58.493Z,99894.42
2022-12-08T05:55:26.144Z,99897.63
2022-12-08T05:57:53.812Z,99897.66
2022-12-08T06:00:21.925Z,99899.65
2022-12-08T06:02:49.687Z,99901.50
2022-12-08T06:05:17.450Z,99906.17
2022-12-08T06:07:45.131Z,99908.40
2022-12-08T06:10:12.898Z,99916.75
2022-12-08T06:12:40.746Z,99920.83
2022-12-08T06:15:08.816Z,99922.89
2022-12-08T06:17:36.521Z,99926.81
2022-12-08T06:20:05.246Z,99925.00
2022-12-08T06:22:33.061Z,99926.58
2022-12-08T06:25:00.732Z,99930.63
2022-12-08T06:27:28.505Z,99925.11
2022-12-08T06:29:56.258Z,99926.46
2022-12-08T06:32:27.407Z,99922.82
2022-12-08T06:34:55.497Z,99925.33
2022-12-08T06:37:23.152Z,99929.83
2022-12-08T06:39:51.785Z,99931.20
2022-12-08T06:42:38.081Z,99933.72
2022-12-08T06:45:06.798Z,99933.67
2022-12-08T06:47:34.913Z,99943.20
2022-12-08T06:50:03.076Z,99944.23
2022-12-08T06:52:31.215Z,99946.30
2022-12-08T06:54:58.932Z,99953.95
2022-12-08T06:57:26.664Z,99953.13
2022-12-08T06:59:54.346Z,99954.48
2022-12-08T07:02:22.142Z,99957.89
2022-12-08T07:04:51.314Z,99962.75
2022-12-08T07:07:18.937Z,99964.02
2022-12-08T07:09:46.634Z,99969.55
2022-12-08T07:12:14.501Z,99967.93
2022-12-08T07:14:42.148Z,99967.17
2022-12-08T07:17:09.854Z,99967.31
2022-12-08T07:19:37.600Z,99967.69
2022-12-08T07:22:05.237Z,99970.51
2022-12-08T07:24:33.319Z,99968.81
2022-12-08T07:27:00.990Z,99967.05
2022-12-08T07:29:28.785Z,99968.00
2022-12-08T07:31:56.444Z,99966.61
2022-12-08T07:34:24.205Z,99966.20
2022-12-08T07:36:51.820Z,99963.63
2022-12-08T07:39:19.511Z,99965.90
2022-12-08T07:41:47.184Z,99967.16
2022-12-08T07:44:14.960Z,99965.85
2022-12-08T07:46:42.689Z,99962.12
2022-12-08T07:49:10.405Z,99965.21
2022-12-08T07:51:38.130Z,99969.05
2022-12-08T07:54:05.869Z,99969.41
2022-12-08T07:56:33.596Z,99972.09
2022-12-08T07:59:02.869Z,99978.58
2022-12-08T08:01:32.990Z,99978.95
2022-12-08T08:04:04.476Z,99981.96
2022-12-08T08:06:33.678Z,99980.13
2022-12-08T08:09:01.345Z,99975.41
2022-12-08T08:11:29.143Z,99986.64
2022-12-08T08:13:57.914Z,99985.98
2022-12-08T08:16:25.847Z,99984.15
2022-12-08T08:18:54.157Z,99977.83
2022-12-08T08:21:45.123Z,99980.65
2022-12-08T08:24:09.996Z,99981.21
2022-12-08T08:26:37.866Z,99985.91
2022-12-08T08:29:05.560Z,99988.98
2022-12-08T08:31:33.296Z,99986.30
2022-12-08T08:34:05.953Z,99991.23
2022-12-08T08:36:34.034Z,99996.52
2022-12-08T08:39:02.111Z,99997.64
2022-12-08T08:41:29.938Z,99997.52
2022-12-08T08:43:57.649Z,100002.45
2022-12-08T08:46:25.338Z,100003.23
2022-12-08T08:48:53.070Z,100004.31
2022-12-08T08:51:21.169Z,100004.61
2022-12-08T08:53:48.923Z,100000.52
2022-12-08T08:56:22.381Z,99997.84
2022-12-08T08:58:51.587Z,99996.98
2022-12-08T09:01:30.190Z,99993.44
2022-12-08T09:03:58.228Z,99999.66
2022-12-08T09:06:28.115Z,99992.39
2022-12-08T09:08:56.342Z,99991.84
2022-12-08T09:11:24.252Z,99986.85
2022-12-08T09:13:53.464Z,99985.47
2022-12-08T09:16:21.884Z,99990.35
2022-12-08T09:18:50.320Z,99993.73
2022-12-08T09:21:22.959Z,99991.67
2022-12-08T09:23:52.788Z,99992.05
2022-12-08T09:26:24.013Z,99992.65
2022-12-08T09:28:53.185Z,99993.46
2022-12-08T09:31:22.174Z,99989.35
2022-12-08T09:33:52.988Z,99983.67
2022-12-08T09:36:21.136Z,99983.55
2022-12-08T09:38:50.275Z,99976.68
2022-12-08T09:41:22.640Z,99970.02
2022-12-08T09:44:21.364Z,99967.67
2022-12-08T09:46:52.311Z,99963.21
2022-12-08T09:49:28.199Z,99967.43
2022-12-08T09:51:56.070Z,99965.66
2022-12-08T09:54:34.343Z,99966.23
2022-12-08T09:57:11.992Z,99965.23
2022-12-08T09:59:41.363Z,99962.31
2022-12-08T10:02:26.547Z,99964.02
2022-12-08T10:04:56.426Z,99961.61
2022-12-08T10:07:43.617Z,99963.91
2022-12-08T10:10:33.329Z,99959.37
2022-12-08T10:13:26.234Z,99958.34
2022-12-08T10:16:29.873Z,99956.81
2022-12-08T10:19:10.910Z,99953.45
2022-12-08T10:21:40.639Z,99954.14
2022-12-08T10:24:13.603Z,99953.59
2022-12-08T10:26:41.279Z,99949.27
2022-12-08T10:29:13.611Z,99946.89
2022-12-08T10:31:42.263Z,99947.50
2022-12-08T10:34:19.015Z,99942.73
2022-12-08T10:36:58.242Z,99932.46
2022-12-08T10:39:31.255Z,99926.50
2022-12-08T10:42:22.571Z,99928.23
2022-12-08T10:45:08.712Z,99930.27
2022-12-08T10:47:41.559Z,99929.61
2022-12-08T10:50:15.351Z,99934.92
2022-12-08T10:52:43.023Z,99930.16
2022-12-08T10:55:17.020Z,99926.20
2022-12-08T10:57:45.493Z,99918.92
2022-12-08T11:00:18.800Z,99918.92
2022-12-08T11:02:57.351Z,99914.88
2022-12-08T11:05:29.398Z,99913.65
2022-12-08T11:07:57.787Z,99917.48
2022-12-08T11:10:43.349Z,99916.79
2022-12-08T11:13:22.716Z,99909.53
2022-12-08T11:15:51.231Z,99909.98
2022-12-08T11:18:22.896Z,99905.64
2022-12-08T11:20:59.262Z,99907.58
2022-12-08T11:23:29.109Z,99903.53
2022-12-08T11:26:04.748Z,99909.02
2022-12-08T11:28:32.455Z,99904.09
2022-12-08T11:31:06.983Z,99903.60
2022-12-08T11:33:34.854Z,99902.92
2022-12-08T11:36:08.987Z,99900.64
2022-12-08T11:38:42.293Z,99903.10
2022-12-08T11:41:18.949Z,99899.83
2022-12-08T11:43:58.783Z,99899.50
2022-12-08T11:46:51.224Z,99896.94
2022-12-08T11:49:20.605Z,99892.45
2022-12-08T11:51:54.747Z,99891.34
2022-12-08T11:54:34.653Z,99888.15
2022-12-08T11:57:05.900Z,99888.80
2022-12-08T11:59:41.886Z,99891.10
2022-12-08T12:02:14.438Z,99888.82
2022-12-08T12:04:49.336Z,99883.66
2022-12-08T12:07:39.551Z,99889.66
2022-12-08T12:10:35.120Z,99885.11
2022-12-08T12:13:40.455Z,99879.51
2022-12-08T12:16:21.547Z,99874.46
2022-12-08T12:19:16.994Z,99873.31
2022-12-08T12:21:50.563Z,99875.91
2022-12-08T12:24:27.501Z,99875.02
2022-12-08T12:27:08.038Z,99867.63
2022-12-08T12:29:38.453Z,99866.89
2022-12-08T12:32:10.122Z,99864.69
2022-12-08T12:34:48.921Z,99862.65
2022-12-08T12:37:21.519Z,99861.52
2022-12-08T12:40:03.645Z,99858.96
2022-12-08T12:42:40.363Z,99853.92
2022-12-08T12:45:17.096Z,99852.66
2022-12-08T12:47:56.181Z,99849.80
2022-12-08T12:50:33.995Z,99850.68
2022-12-08T12:53:10.660Z,99849.31
2022-12-08T12:55:55.453Z,99841.98
2022-12-08T12:58:29.350Z,99840.63
2022-12-08T13:01:15.124Z,99841.55
2022-12-08T13:03:47.376Z,99837.94
2022-12-08T13:06:23.009Z,99841.14
2022-12-08T13:08:53.185Z,99845.36
2022-12-08T13:11:21.783Z,99843.81
2022-12-08T13:14:04.578Z,99844.73
2022-12-08T13:16:37.366Z,99844.44
2022-12-08T13:19:12.812Z,99842.79
2022-12-08T13:21:40.904Z,99843.88
2022-12-08T13:24:17.264Z,99843.39
2022-12-08T13:26:49.399Z,99844.66
2022-12-08T13:29:25.686Z,99845.28
2022-12-08T13:32:00.930Z,99847.17
2022-12-08T13:34:45.273Z,99842.44
2022-12-08T13:37:15.799Z,99837.45
2022-12-08T13:39:51.022Z,99835.89
2022-12-08T13:42:27.451Z,99831.27
2022-12-08T13:45:48.575Z,99829.52
2022-12-08T13:48:30.138Z,99828.64
2022-12-08T13:57:35.863Z,99814.91
2022-12-08T14:00:15.201Z,99812.41
2022-12-08T14:02:48.347Z,99813.60
2022-12-08T14:05:23.790Z,99814.80
2022-12-08T14:07:57.752Z,99816.98
2022-12-08T14:10:28.271Z,99820.10
2022-12-08T14:13:00.574Z,99818.38
2022-12-08T14:15:32.696Z,99817.91
2022-12-08T14:18:05.927Z,99815.74
2022-12-08T14:20:57.744Z,99815.40
2022-12-08T14:23:23.296Z,99817.68
2022-12-08T14:25:50.945Z,99819.75
2022-12-08T14:28:18.680Z,99824.42
2022-12-08T14:30:49.556Z,99824.13
2022-12-08T14:33:17.501Z,99824.39
2022-12-08T14:35:51.484Z,99824.61
2022-12-08T14:38:21.769Z,99825.81
2022-12-08T14:41:07.184Z,99821.59
2022-12-08T14:43:34.991Z,99824.31
2022-12-08T14:46:06.504Z,99823.09
2022-12-08T14:48:34.160Z,99825.17
2022-12-08T14:51:04.729Z,99826.90
2022-12-08T14:53:40.721Z,99822.02
2022-12-08T14:56:24.556Z,99826.33
2022-12-08T14:59:04.241Z,99827.44
2022-12-08T15:01:33.000Z,99823.70
2022-12-08T15:04:28.556Z,99821.55
2022-12-08T15:07:20.005Z,99821.59
2022-12-08T15:09:50.142Z,99819.05
2022-12-08T15:12:27.125Z,99822.20
2022-12-08T15:14:56.973Z,99824.36
2022-12-08T15:17:39.919Z,99823.20
2022-12-08T15:20:33.221Z,99821.56
2022-12-08T15:23:02.688Z,99823.30
2022-12-08T15:25:30.443Z,99821.34
2022-12-08T15:27:58.214Z,99819.08
2022-12-08T15:30:29.731Z,99821.02
2022-12-08T15:32:57.414Z,99820.52
2022-12-08T15:35:25.071Z,99818.04
2022-12-08T15:37:52.891Z,99816.76
2022-12-08T15:40:22.973Z,99817.34
2022-12-08T15:42:50.721Z,99816.77
2022-12-08T15:45:18.991Z,99817.22
2022-12-08T15:47:46.645Z,99821.30
2022-12-08T15:50:16.729Z,99816.74
2022-12-08T15:52:44.500Z,99820.50
2022-12-08T15:55:19.612Z,99828.01
2022-12-08T15:58:45.052Z,99820.63
2022-12-08T16:00:55.653Z,99830.48
2022-12-08T16:04:13.854Z,99830.94
2022-12-08T16:09:13.740Z,99832.57
2022-12-08T16:12:07.110Z,99829.95
2022-12-08T16:17:25.684Z,99829.84
2022-12-08T16:19:53.997Z,99827.42
2022-12-08T16:22:52.901Z,99826.80
2022-12-08T16:25:20.419Z,99824.71
2022-12-08T16:28:01.215Z,99825.86
2022-12-08T16:30:31.203Z,99822.02
2022-12-08T16:32:58.865Z,99813.94
2022-12-08T16:35:26.574Z,99813.45
2022-12-08T16:37:54.256Z,99813.73
2022-12-08T16:40:22.657Z,99812.55
2022-12-08T16:42:50.559Z,99813.59
2022-12-08T16:45:25.755Z,99815.17
2022-12-08T16:47:56.022Z,99820.23
2022-12-08T16:50:32.146Z,99823.54
2022-12-08T16:53:02.454Z,99824.12
2022-12-08T16:55:30.403Z,99825.67
2022-12-08T16:57:58.637Z,99826.32
2022-12-08T17:00:28.911Z,99825.57
2022-12-08T17:02:58.550Z,99829.79
2022-12-08T17:05:26.881Z,99827.14
2022-12-08T17:07:55.405Z,99825.19
2022-12-08T17:10:26.078Z,99823.84
2022-12-08T17:12:54.642Z,99822.84
2022-12-08T17:15:25.566Z,99826.29
2022-12-08T17:17:53.710Z,99824.23
2022-12-08T17:20:24.771Z,99825.41
2022-12-08T17:22:58.257Z,99822.12
2022-12-08T17:25:26.926Z,99823.02
2022-12-08T17:27:56.245Z,99825.27
2022-12-08T17:30:24.003Z,99827.49
2022-12-08T17:32:52.844Z,99822.71
2022-12-08T17:35:20.645Z,99824.04
2022-12-08T17:37:48.378Z,99826.63
2022-12-08T17:40:16.644Z,99828.55
2022-12-08T17:42:44.661Z,99822.46
2022-12-08T17:45:12.378Z,99827.11
2022-12-08T17:47:39.986Z,99828.15
2022-12-08T17:50:08.722Z,99830.73
2022-12-08T17:52:36.705Z,99830.14
2022-12-08T17:55:04.764Z,99830.32
2022-12-08T18:00:36.151Z,99833.96
2022-12-08T18:03:02.680Z,99835.56
2022-12-08T18:05:30.469Z,99836.60
2022-12-08T18:07:57.500Z,99836.88
2022-12-08T18:10:23.850Z,99836.59
2022-12-08T18:12:50.321Z,99833.05
2022-12-08T18:15:18.678Z,99836.65
2022-12-08T18:17:45.293Z,99836.87
2022-12-08T18:20:12.651Z,99833.39
2022-12-08T18:22:40.366Z,99830.95
2022-12-08T18:25:07.372Z,99831.00
2022-12-08T18:27:37.418Z,99830.61
2022-12-08T18:30:11.532Z,99829.40
2022-12-08T18:32:37.859Z,99829.09
2022-12-08T18:35:04.448Z,99827.14
2022-12-08T18:37:30.715Z,99827.34
2022-12-08T18:39:57.115Z,99828.38
2022-12-08T18:42:23.425Z,99824.39
2022-12-08T18:45:06.037Z,99821.24
2022-12-08T18:47:34.728Z,99819.45
2022-12-08T18:50:01.396Z,99824.52
2022-12-08T18:52:32.173Z,99819.93
2022-12-08T18:55:07.658Z,99820.64
2022-12-08T18:57:37.910Z,99818.83
2022-12-08T19:00:09.857Z,99819.31
2022-12-08T19:02:38.170Z,99820.94
2022-12-08T19:05:06.093Z,99817.58
2022-12-08T19:07:32.383Z,99821.45
2022-12-08T19:10:00.540Z,99819.20
2022-12-08T19:12:27.571Z,99817.46
2022-12-08T19:14:54.030Z,99815.46
2022-12-08T19:17:20.486Z,99814.67
2022-12-08T19:19:46.953Z,99815.05
2022-12-08T19:22:13.417Z,99821.14
2022-12-08T19:24:39.685Z,99819.61
2022-12-08T19:27:06.128Z,99817.71
2022-12-08T19:29:32.389Z,99819.35
2022-12-08T19:31:59.615Z,99820.27
2022-12-08T19:34:26.069Z,99817.21
2022-12-08T19:36:52.475Z,99814.30
2022-12-08T19:39:41.144Z,99812.90
2022-12-08T19:49:03.341Z,99804.63
2022-12-08T19:51:31.069Z,99803.94
2022-12-08T19:53:58.759Z,99807.57
2022-12-08T19:56:26.575Z,99806.65
2022-12-08T19:58:54.267Z,99808.13
2022-12-08T20:01:21.989Z,99805.83
2022-12-08T20:03:49.666Z,99800.60
2022-12-08T20:06:18.173Z,99801.20
2022-12-08T20:08:50.432Z,99801.16
2022-12-08T20:11:18.484Z,99806.63
2022-12-08T20:13:47.661Z,99806.19
2022-12-08T20:16:16.365Z,99807.34
2022-12-08T20:18:44.359Z,99809.03
2022-12-08T20:21:12.473Z,99810.44
2022-12-08T20:23:40.335Z,99812.77
2022-12-08T20:26:09.953Z,99812.13
2022-12-08T20:28:38.116Z,99814.39
2022-12-08T20:31:06.147Z,99811.19
2022-12-08T20:33:33.995Z,99811.91
2022-12-08T20:36:04.600Z,99813.11
2022-12-08T20:38:32.287Z,99813.39
2022-12-08T20:41:00.035Z,99814.91
2022-12-08T20:43:27.728Z,99816.16
2022-12-08T20:45:55.407Z,99820.33
2022-12-08T20:48:23.061Z,99820.73
2022-12-08T20:50:52.065Z,99823.98
2022-12-08T20:53:19.767Z,99822.89
2022-12-08T20:55:47.518Z,99820.02
2022-12-08T20:58:15.373Z,99818.95
2022-12-08T21:00:43.491Z,99812.17
2022-12-08T21:03:12.755Z,99820.17
2022-12-08T21:05:41.188Z,99816.80
2022-12-08T21:08:08.946Z,99815.94
2022-12-08T21:10:42.194Z,99813.15
2022-12-08T21:13:11.900Z,99813.44
2022-12-08T21:15:39.681Z,99810.87
2022-12-08T21:18:07.458Z,99809.95
2022-12-08T21:20:35.267Z,99810.24
2022-12-08T21:23:02.946Z,99813.73
2022-12-08T21:25:30.898Z,99814.21
2022-12-08T21:27:58.917Z,99809.75
2022-12-08T21:30:26.921Z,99809.06
2022-12-08T21:32:54.694Z,99806.66
2022-12-08T21:35:22.496Z,99809.84
2022-12-08T21:37:50.202Z,99808.62
2022-12-08T21:40:18.303Z,99809.45
2022-12-08T21:42:46.256Z,99807.33
2022-12-08T21:45:16.728Z,99808.03
2022-12-08T21:47:46.367Z,99805.27
2022-12-08T21:50:14.982Z,99801.23
2022-12-08T21:52:45.335Z,99803.77
2022-12-08T21:55:14.688Z,99800.66
2022-12-08T21:57:43.169Z,99805.34
2022-12-08T22:00:15.355Z,99798.20
2022-12-08T22:02:43.797Z,99802.34
2022-12-08T22:05:11.625Z,99800.98
2022-12-08T22:07:40.874Z,99805.29
2022-12-08T22:10:10.642Z,99803.85
2022-12-08T22:12:38.875Z,99802.59
2022-12-08T22:15:08.728Z,99800.83
2022-12-08T22:17:41.765Z,99801.45
2022-12-08T22:20:12.869Z,99797.58
2022-12-08T22:22:40.886Z,99797.75
2022-12-08T22:25:11.957Z,99801.41
2022-12-08T22:27:40.669Z,99801.63
2022-12-08T22:30:09.670Z,99807.66
2022-12-08T22:32:37.884Z,99805.30
2022-12-08T22:35:05.983Z,99805.66
2022-12-08T22:37:33.910Z,99803.34
2022-12-08T22:40:01.747Z,99802.95
2022-12-08T22:42:29.947Z,99802.48
2022-12-08T22:44:57.726Z,99802.08
2022-12-08T22:47:25.657Z,99802.09
2022-12-08T22:49:53.481Z,99802.73
2022-12-08T22:52:21.259Z,99800.14
2022-12-08T22:54:49.168Z,99801.60
2022-12-08T22:57:17.016Z,99802.97
2022-12-08T22:59:44.788Z,99800.80
2022-12-08T23:02:12.609Z,99797.51
2022-12-08T23:04:40.518Z,99805.55
2022-12-08T23:07:08.364Z,99802.65
2022-12-08T23:09:36.017Z,99801.76
2022-12-08T23:12:04.780Z,99805.92
2022-12-08T23:14:32.443Z,99803.48
2022-12-08T23:17:00.313Z,99805.65
2022-12-08T23:19:28.305Z,99808.59
2022-12-08T23:21:56.179Z,99809.30
2022-12-08T23:24:24.091Z,99803.01
2022-12-08T23:26:51.920Z,99809.54
2022-12-08T23:29:19.668Z,99811.45
2022-12-08T23:31:47.517Z,99813.15
2022-12-08T23:34:15.400Z,99816.50
2022-12-08T23:36:43.329Z,99814.16
2022-12-08T23:39:11.795Z,99814.13
2022-12-08T23:41:39.705Z,99815.70
2022-12-08T23:44:09.115Z,99814.73
2022-12-08T23:46:36.979Z,99811.90
2022-12-08T23:49:04.903Z,99811.00
2022-12-08T23:51:32.831Z,99812.92
2022-12-08T23:54:00.794Z,99812.12
2022-12-08T23:56:30.523Z,99811.52
2022-12-08T23:59:00.630Z,99806.46
